createdAt,value
2022-12-17T00:02:04.525Z,75.70
2022-12-17T00:04:50.710Z,93.73
2022-12-17T00:07:39.225Z,79.40
2022-12-17T00:10:26.257Z,76.73
2022-12-17T00:13:12.458Z,86.20
2022-12-17T00:15:58.970Z,85.47
2022-12-17T00:18:45.663Z,87.20
2022-12-17T00:21:32.124Z,89.87
2022-12-17T00:24:19.718Z,75.30
2022-12-17T00:27:05.847Z,46.47
2022-12-17T00:29:51.850Z,58.30
2022-12-17T00:32:38.314Z,51.60
2022-12-17T00:35:25.340Z,44.73
2022-12-17T00:38:11.340Z,40.07
2022-12-17T00:40:59.082Z,40.67
2022-12-17T00:43:45.215Z,42.43
2022-12-17T00:46:31.485Z,50.03
2022-12-17T00:49:17.639Z,65.73
2022-12-17T00:52:03.960Z,51.13
2022-12-17T00:54:50.131Z,51.17
2022-12-17T00:57:37.777Z,54.90
2022-12-17T01:00:25.358Z,54.87
2022-12-17T01:03:11.530Z,79.43
2022-12-17T01:05:57.876Z,81.83
2022-12-17T01:08:45.903Z,89.87
2022-12-17T01:11:32.043Z,99.77
2022-12-17T01:14:19.467Z,88.83
2022-12-17T01:17:02.062Z,84.10
2022-12-17T01:19:48.468Z,85.73
2022-12-17T01:22:34.549Z,94.37
2022-12-17T01:25:20.547Z,98.67
2022-12-17T01:28:08.236Z,95.07
2022-12-17T01:30:57.688Z,98.93
2022-12-17T01:33:43.857Z,90.40
2022-12-17T01:36:29.219Z,93.87
2022-12-17T01:39:15.736Z,105.57
2022-12-17T01:42:01.859Z,97.50
2022-12-17T01:45:11.571Z,91.90
2022-12-17T01:48:03.757Z,87.97
2022-12-17T01:50:53.803Z,73.93
2022-12-17T01:53:43.557Z,72.60
2022-12-17T01:56:30.953Z,85.90
2022-12-17T01:59:17.707Z,84.37
2022-12-17T02:02:03.816Z,74.63
2022-12-17T02:04:51.605Z,54.77
2022-12-17T02:07:53.707Z,43.70
2022-12-17T02:10:44.411Z,65.33
2022-12-17T02:13:35.451Z,74.87
2022-12-17T02:16:28.331Z,75.80
2022-12-17T02:19:19.216Z,71.40
2022-12-17T02:22:12.612Z,52.77
2022-12-17T02:25:06.846Z,52.10
2022-12-17T02:27:55.283Z,50.87
2022-12-17T02:30:42.071Z,42.33
2022-12-17T02:33:29.558Z,37.33
2022-12-17T02:36:22.040Z,35.03
2022-12-17T02:39:08.035Z,33.10
2022-12-17T02:42:00.077Z,32.90
2022-12-17T02:44:50.874Z,32.43
2022-12-17T02:47:39.086Z,32.13
2022-12-17T02:50:27.846Z,32.10
2022-12-17T02:53:32.779Z,31.23
2022-12-17T02:56:19.280Z,37.40
2022-12-17T02:59:04.698Z,36.87
2022-12-17T03:01:53.910Z,58.37
2022-12-17T03:04:40.107Z,54.83
2022-12-17T03:07:26.335Z,49.97
2022-12-17T03:10:12.514Z,51.50
2022-12-17T03:13:01.541Z,42.53
2022-12-17T03:15:47.814Z,38.23
2022-12-17T03:18:35.598Z,56.57
2022-12-17T03:21:21.663Z,62.07
2022-12-17T03:24:07.917Z,73.17
2022-12-17T03:26:54.063Z,63.73
2022-12-17T03:29:58.841Z,52.50
2022-12-17T03:32:45.017Z,41.83
2022-12-17T03:35:41.184Z,49.87
2022-12-17T03:38:28.037Z,52.73
2022-12-17T03:41:14.356Z,46.43
2022-12-17T03:44:00.612Z,32.23
2022-12-17T03:46:46.597Z,34.27
2022-12-17T03:49:33.058Z,33.23
2022-12-17T03:52:20.568Z,32.87
2022-12-17T03:55:06.878Z,31.03
2022-12-17T03:57:53.284Z,28.57
2022-12-17T04:00:39.642Z,28.80
2022-12-17T04:03:25.981Z,29.27
2022-12-17T04:06:12.360Z,25.63
2022-12-17T04:08:59.908Z,24.50
2022-12-17T04:11:47.263Z,24.10
2022-12-17T04:14:38.821Z,23.93
2022-12-17T04:17:25.283Z,24.30
2022-12-17T04:20:11.584Z,23.37
2022-12-17T04:22:57.758Z,22.00
2022-12-17T04:25:45.747Z,22.83
2022-12-17T04:28:31.871Z,23.70
2022-12-17T04:31:18.270Z,23.87
2022-12-17T04:34:04.597Z,22.37
2022-12-17T04:36:50.733Z,24.03
2022-12-17T04:39:37.164Z,22.93
2022-12-17T04:42:25.079Z,22.53
2022-12-17T04:45:11.155Z,22.73
2022-12-17T04:47:57.501Z,22.20
2022-12-17T04:50:43.663Z,22.57
2022-12-17T04:53:29.825Z,22.90
2022-12-17T04:56:16.016Z,23.30
2022-12-17T04:59:06.560Z,25.73
2022-12-17T05:01:53.880Z,27.13
2022-12-17T05:04:40.048Z,29.93
2022-12-17T05:07:26.097Z,40.13
2022-12-17T05:10:12.417Z,34.30
2022-12-17T05:12:57.711Z,35.60
2022-12-17T05:15:51.349Z,34.93
2022-12-17T05:18:39.199Z,30.90
2022-12-17T05:21:29.208Z,31.83
2022-12-17T05:24:32.783Z,31.37
2022-12-17T05:27:19.142Z,31.77
2022-12-17T05:30:05.407Z,33.00
2022-12-17T05:32:52.853Z,34.00
2022-12-17T05:35:39.264Z,34.87
2022-12-17T05:38:27.172Z,30.63
2022-12-17T05:41:15.664Z,30.10
2022-12-17T05:47:08.461Z,31.40
2022-12-17T05:50:15.018Z,29.00
2022-12-17T05:53:08.547Z,29.60
2022-12-17T05:55:55.509Z,29.47
2022-12-17T05:58:44.963Z,27.67
2022-12-17T06:01:31.663Z,27.73
2022-12-17T06:04:17.997Z,25.73
2022-12-17T06:07:05.685Z,26.60
2022-12-17T06:09:52.206Z,27.37
2022-12-17T06:12:38.295Z,27.00
2022-12-17T06:15:25.578Z,27.20
2022-12-17T06:18:16.656Z,27.50
2022-12-17T06:21:05.051Z,28.37
2022-12-17T06:23:53.080Z,42.67
2022-12-17T06:26:39.822Z,62.43
2022-12-17T06:29:26.484Z,60.03
2022-12-17T06:32:13.396Z,42.33
2022-12-17T06:34:59.842Z,47.67
2022-12-17T06:37:46.071Z,44.13
2022-12-17T06:40:40.438Z,38.23
2022-12-17T06:43:27.679Z,31.90
2022-12-17T06:46:14.457Z,33.67
2022-12-17T06:49:02.590Z,31.20
2022-12-17T06:52:05.660Z,28.97
2022-12-17T06:54:59.780Z,29.00
2022-12-17T06:57:50.530Z,29.80
2022-12-17T07:00:37.403Z,33.27
2022-12-17T07:03:24.150Z,36.90
2022-12-17T07:06:10.448Z,43.33
2022-12-17T07:08:56.678Z,28.83
2022-12-17T07:11:48.935Z,27.10
2022-12-17T07:14:36.602Z,25.93
2022-12-17T07:17:23.016Z,23.80
2022-12-17T07:20:11.898Z,21.73
2022-12-17T07:22:54.702Z,20.50
2022-12-17T07:25:45.803Z,20.10
2022-12-17T07:28:32.415Z,21.07
2022-12-17T07:31:20.332Z,43.20
2022-12-17T07:34:06.334Z,35.40
2022-12-17T07:36:52.926Z,40.33
2022-12-17T07:39:39.044Z,37.97
2022-12-17T07:42:25.362Z,72.37
2022-12-17T07:45:11.587Z,53.37
2022-12-17T07:48:04.752Z,43.63
2022-12-17T07:51:09.262Z,44.97
2022-12-17T07:53:55.712Z,27.23
2022-12-17T07:56:41.990Z,31.70
2022-12-17T07:59:28.428Z,19.70
2022-12-17T08:02:15.010Z,40.27
2022-12-17T08:05:03.888Z,22.27
2022-12-17T08:07:50.297Z,39.43
2022-12-17T08:10:36.623Z,28.80
2022-12-17T08:13:27.946Z,25.10
2022-12-17T08:16:14.499Z,27.50
2022-12-17T08:19:00.913Z,26.93
2022-12-17T08:21:48.773Z,42.40
2022-12-17T08:24:35.137Z,38.57
2022-12-17T08:27:21.501Z,26.10
2022-12-17T08:30:27.420Z,25.57
2022-12-17T08:33:13.502Z,16.23
2022-12-17T08:35:59.527Z,18.20
2022-12-17T08:38:47.006Z,20.87
2022-12-17T08:41:33.397Z,15.40
2022-12-17T08:44:19.631Z,17.47
2022-12-17T08:47:05.644Z,17.10
2022-12-17T08:49:52.107Z,17.73
2022-12-17T08:52:38.430Z,16.97
2022-12-17T08:55:29.610Z,15.07
2022-12-17T08:58:17.270Z,15.07
2022-12-17T09:01:04.092Z,15.13
2022-12-17T09:03:50.393Z,14.87
2022-12-17T09:06:39.293Z,16.43
2022-12-17T09:09:26.607Z,14.57
2022-12-17T09:12:14.558Z,15.50
2022-12-17T09:15:00.975Z,17.70
2022-12-17T09:17:47.466Z,14.77
2022-12-17T09:20:35.529Z,17.87
2022-12-17T09:23:21.980Z,20.13
2022-12-17T09:26:12.219Z,24.57
2022-12-17T09:29:01.203Z,16.37
2022-12-17T09:31:48.848Z,13.97
2022-12-17T09:34:35.915Z,16.70
2022-12-17T09:37:23.523Z,23.27
2022-12-17T09:40:09.863Z,34.73
2022-12-17T09:43:05.099Z,63.30
2022-12-17T09:46:01.168Z,47.63
2022-12-17T09:48:54.829Z,26.20
2022-12-17T09:51:43.647Z,31.57
2022-12-17T09:54:38.795Z,17.13
2022-12-17T09:57:29.673Z,22.33
2022-12-17T10:00:16.212Z,29.13
2022-12-17T10:03:04.644Z,22.93
2022-12-17T10:05:51.688Z,21.87
2022-12-17T10:08:40.039Z,32.10
2022-12-17T10:11:39.407Z,22.63
2022-12-17T10:14:33.496Z,23.33
2022-12-17T10:17:21.249Z,32.20
2022-12-17T10:20:13.691Z,40.27
2022-12-17T10:23:04.638Z,28.57
2022-12-17T10:25:51.551Z,12.57
2022-12-17T10:28:39.284Z,11.67
2022-12-17T10:31:39.568Z,10.10
2022-12-17T10:34:27.734Z,11.40
2022-12-17T10:37:15.208Z,12.67
2022-12-17T10:40:01.571Z,14.40
2022-12-17T10:42:49.296Z,12.00
2022-12-17T10:45:43.916Z,10.50
2022-12-17T10:48:37.770Z,10.27
2022-12-17T10:51:25.585Z,12.53
2022-12-17T10:54:13.198Z,15.30
2022-12-17T10:56:59.226Z,11.70
2022-12-17T10:59:50.472Z,11.80
2022-12-17T11:02:46.991Z,12.13
2022-12-17T11:05:35.584Z,12.73
2022-12-17T11:08:22.957Z,12.73
2022-12-17T11:11:11.154Z,13.73
2022-12-17T11:14:03.874Z,15.13
2022-12-17T11:16:55.691Z,28.13
2022-12-17T11:19:55.054Z,18.70
2022-12-17T11:22:47.750Z,20.13
2022-12-17T11:25:47.623Z,17.63
2022-12-17T11:28:40.652Z,12.23
2022-12-17T11:31:48.721Z,13.07
2022-12-17T11:35:06.249Z,13.20
2022-12-17T11:37:57.663Z,14.97
2022-12-17T11:40:53.078Z,24.93
2022-12-17T11:43:48.058Z,23.47
2022-12-17T11:46:46.517Z,44.33
2022-12-17T11:49:42.347Z,26.17
2022-12-17T11:52:36.118Z,27.57
2022-12-17T11:55:34.416Z,16.77
2022-12-17T11:58:23.624Z,25.30
2022-12-17T12:01:20.537Z,10.93
2022-12-17T12:04:15.880Z,14.90
2022-12-17T12:07:13.580Z,15.63
2022-12-17T12:10:05.857Z,14.87
2022-12-17T12:13:04.168Z,13.10
2022-12-17T12:15:58.570Z,12.40
2022-12-17T12:18:54.819Z,14.33
2022-12-17T12:21:52.989Z,18.03
2022-12-17T12:25:12.162Z,19.80
2022-12-17T12:28:25.292Z,16.97
2022-12-17T12:31:20.069Z,21.17
2022-12-17T12:34:12.961Z,22.17
2022-12-17T12:37:01.337Z,20.17
2022-12-17T12:39:57.320Z,19.80
2022-12-17T12:43:33.487Z,17.80
2022-12-17T12:46:35.657Z,38.43
2022-12-17T12:49:39.435Z,22.20
2022-12-17T12:52:29.018Z,26.57
2022-12-17T12:55:18.649Z,23.57
2022-12-17T12:58:19.357Z,20.73
2022-12-17T13:01:18.990Z,20.27
2022-12-17T13:04:11.644Z,20.93
2022-12-17T13:06:46.859Z,21.77
2022-12-17T13:09:35.583Z,20.53
2022-12-17T13:12:23.680Z,17.83
2022-12-17T13:15:01.518Z,15.13
2022-12-17T13:17:36.206Z,15.23
2022-12-17T13:20:27.219Z,19.20
2022-12-17T13:23:18.272Z,16.03
2022-12-17T13:25:47.986Z,13.87
2022-12-17T13:28:31.109Z,12.57
2022-12-17T13:31:08.089Z,14.27
2022-12-17T13:33:47.525Z,17.80
2022-12-17T13:36:25.654Z,39.77
2022-12-17T13:39:04.396Z,74.53
2022-12-17T13:41:57.045Z,38.10
2022-12-17T13:44:29.735Z,33.80
2022-12-17T13:46:59.223Z,16.80
2022-12-17T13:49:30.091Z,14.57
2022-12-17T13:52:11.714Z,13.53
2022-12-17T13:54:42.284Z,14.70
2022-12-17T13:57:12.324Z,39.00
2022-12-17T13:59:41.803Z,71.17
2022-12-17T14:02:26.900Z,20.37
2022-12-17T14:04:59.097Z,13.50
2022-12-17T14:07:35.224Z,14.80
2022-12-17T14:10:07.294Z,20.30
2022-12-17T14:12:35.779Z,18.30
2022-12-17T14:15:09.663Z,21.40
2022-12-17T14:17:42.720Z,45.43
2022-12-17T14:20:15.680Z,56.40
2022-12-17T14:22:51.588Z,99.30
2022-12-17T14:25:24.295Z,125.30
2022-12-17T14:27:57.656Z,63.70
2022-12-17T14:30:46.273Z,33.13
2022-12-17T14:33:34.173Z,92.93
2022-12-17T14:36:06.649Z,38.93
2022-12-17T14:38:38.930Z,20.73
2022-12-17T14:41:27.859Z,18.37
2022-12-17T14:43:59.356Z,20.33
2022-12-17T14:46:29.434Z,19.97
2022-12-17T14:49:02.817Z,19.93
2022-12-17T14:51:36.417Z,21.47
2022-12-17T14:54:22.345Z,20.93
2022-12-17T14:56:54.815Z,22.70
2022-12-17T14:59:26.870Z,37.23
2022-12-17T15:02:02.936Z,78.03
2022-12-17T15:04:38.042Z,80.80
2022-12-17T15:07:14.682Z,80.23
2022-12-17T15:09:47.311Z,55.20
2022-12-17T15:12:18.901Z,41.90
2022-12-17T15:14:48.450Z,28.53
2022-12-17T15:17:18.029Z,28.30
2022-12-17T15:19:55.794Z,26.97
2022-12-17T15:22:43.828Z,27.90
2022-12-17T15:25:14.427Z,28.87
2022-12-17T15:27:44.926Z,28.13
2022-12-17T15:30:16.388Z,25.87
2022-12-17T15:32:46.706Z,31.93
2022-12-17T15:35:16.120Z,30.23
2022-12-17T15:37:44.987Z,31.90
2022-12-17T15:40:14.352Z,30.70
2022-12-17T15:43:06.087Z,31.53
2022-12-17T15:45:35.677Z,32.77
2022-12-17T15:48:04.529Z,32.53
2022-12-17T15:50:34.123Z,33.10
2022-12-17T15:53:03.409Z,34.27
2022-12-17T15:55:32.369Z,37.10
2022-12-17T15:58:02.826Z,36.30
2022-12-17T16:00:32.206Z,35.77
2022-12-17T16:03:01.118Z,40.63
2022-12-17T16:05:30.256Z,49.33
2022-12-17T16:08:02.710Z,66.73
2022-12-17T16:10:32.209Z,60.13
2022-12-17T16:13:02.658Z,64.80
2022-12-17T16:16:02.245Z,63.07
2022-12-17T16:18:32.976Z,62.70
2022-12-17T16:21:05.722Z,59.33
2022-12-17T16:23:35.040Z,56.53
2022-12-17T16:26:06.091Z,56.07
2022-12-17T16:28:37.706Z,52.53
2022-12-17T16:31:09.065Z,44.93
2022-12-17T16:33:40.257Z,42.67
2022-12-17T16:36:12.802Z,42.97
2022-12-17T16:38:45.938Z,39.23
2022-12-17T16:41:15.854Z,40.20
2022-12-17T16:43:46.508Z,38.70
2022-12-17T16:46:31.048Z,39.70
2022-12-17T16:49:04.033Z,39.27
2022-12-17T16:51:33.105Z,38.00
2022-12-17T16:54:08.057Z,39.17
2022-12-17T16:56:40.244Z,37.70
2022-12-17T16:59:12.347Z,37.57
2022-12-17T17:01:44.997Z,36.43
2022-12-17T17:04:16.361Z,30.37
2022-12-17T17:06:47.188Z,29.23
2022-12-17T17:09:17.717Z,30.40
2022-12-17T17:11:51.392Z,34.40
2022-12-17T17:14:22.582Z,42.33
2022-12-17T17:17:11.279Z,41.47
2022-12-17T17:19:40.112Z,47.63
2022-12-17T17:22:09.228Z,45.50
2022-12-17T17:24:38.049Z,51.73
2022-12-17T17:27:06.877Z,51.17
2022-12-17T17:29:37.340Z,68.60
2022-12-17T17:32:10.883Z,65.90
2022-12-17T17:34:40.658Z,73.03
2022-12-17T17:37:09.770Z,70.80
2022-12-17T17:39:38.812Z,89.40
2022-12-17T17:42:07.962Z,82.37
2022-12-17T17:44:38.694Z,64.80
2022-12-17T17:47:07.821Z,55.87
2022-12-17T17:49:36.779Z,55.30
2022-12-17T17:52:10.239Z,48.23
2022-12-17T17:54:41.145Z,48.93
2022-12-17T17:57:10.680Z,49.17
2022-12-17T17:59:41.263Z,50.50
2022-12-17T18:02:12.314Z,49.00
2022-12-17T18:04:41.533Z,51.43
2022-12-17T18:07:28.072Z,65.80
2022-12-17T18:09:59.923Z,69.20
2022-12-17T18:12:57.959Z,72.13
2022-12-17T18:15:28.357Z,65.70
2022-12-17T18:17:57.442Z,98.03
2022-12-17T18:20:26.354Z,86.13
2022-12-17T18:22:55.305Z,85.53
2022-12-17T18:25:24.519Z,93.80
2022-12-17T18:27:54.216Z,99.47
2022-12-17T18:30:24.628Z,89.07
2022-12-17T18:32:56.253Z,60.97
2022-12-17T18:35:27.665Z,51.97
2022-12-17T18:37:56.844Z,47.10
2022-12-17T18:40:30.135Z,48.43
2022-12-17T18:43:21.986Z,48.03
2022-12-17T18:45:50.998Z,63.07
2022-12-17T18:48:21.872Z,49.93
2022-12-17T18:50:50.806Z,40.17
2022-12-17T18:53:19.837Z,35.50
2022-12-17T18:55:48.765Z,35.77
2022-12-17T18:58:17.862Z,32.70
2022-12-17T19:00:47.234Z,32.97
2022-12-17T19:03:16.203Z,30.37
2022-12-17T19:05:54.062Z,31.03
2022-12-17T19:08:23.669Z,31.80
2022-12-17T19:11:13.552Z,30.40
2022-12-17T19:13:42.403Z,30.63
2022-12-17T19:16:13.811Z,30.37
2022-12-17T19:18:43.027Z,32.10
2022-12-17T19:21:16.281Z,31.03
2022-12-17T19:23:45.248Z,37.33
2022-12-17T19:26:15.540Z,53.20
2022-12-17T19:29:03.460Z,53.43
2022-12-17T19:31:33.742Z,49.27
2022-12-17T19:34:04.200Z,41.27
2022-12-17T19:36:36.130Z,32.00
2022-12-17T19:39:07.451Z,42.30
2022-12-17T19:41:36.862Z,43.43
2022-12-17T19:44:07.331Z,84.37
2022-12-17T19:46:37.946Z,63.80
2022-12-17T19:49:07.822Z,59.93
2022-12-17T19:51:39.072Z,67.80
2022-12-17T19:54:09.352Z,81.60
2022-12-17T19:56:38.444Z,82.70
2022-12-17T19:59:09.430Z,74.37
2022-12-17T20:01:41.507Z,78.13
2022-12-17T20:04:12.313Z,68.67
2022-12-17T20:06:43.309Z,61.00
2022-12-17T20:09:12.816Z,57.40
2022-12-17T20:11:42.553Z,83.07
2022-12-17T20:14:15.934Z,76.37
2022-12-17T20:16:46.604Z,117.10
2022-12-17T20:19:18.344Z,135.93
2022-12-17T20:21:49.219Z,126.03
2022-12-17T20:24:19.073Z,129.33
2022-12-17T20:26:50.225Z,124.73
2022-12-17T20:29:19.894Z,126.07
2022-12-17T20:31:49.971Z,122.37
2022-12-17T20:34:26.207Z,125.23
2022-12-17T20:37:14.855Z,125.53
2022-12-17T20:39:43.821Z,122.83
2022-12-17T20:42:13.386Z,120.83
2022-12-17T20:44:43.103Z,119.00
2022-12-17T20:47:12.098Z,131.93
2022-12-17T20:49:41.078Z,134.43
2022-12-17T20:52:10.167Z,126.00
2022-12-17T20:54:40.454Z,130.57
2022-12-17T20:57:09.456Z,132.43
2022-12-17T20:59:38.423Z,135.70
2022-12-17T21:02:07.561Z,112.17
2022-12-17T21:04:36.680Z,108.97
2022-12-17T21:07:05.594Z,111.03
2022-12-17T21:09:34.709Z,121.73
2022-12-17T21:12:05.145Z,123.10
2022-12-17T21:14:37.795Z,135.27
2022-12-17T21:17:07.122Z,146.60
2022-12-17T21:19:36.530Z,159.27
2022-12-17T21:22:06.066Z,149.53
2022-12-17T21:24:35.456Z,164.77
2022-12-17T21:27:11.148Z,163.63
2022-12-17T21:29:43.472Z,158.10
2022-12-17T21:32:12.304Z,150.23
2022-12-17T21:34:41.468Z,149.00
2022-12-17T21:37:11.443Z,170.53
2022-12-17T21:39:40.431Z,150.20
2022-12-17T21:42:28.399Z,153.97
2022-12-17T21:45:16.115Z,171.37
2022-12-17T21:47:45.415Z,170.57
2022-12-17T21:50:14.462Z,166.50
2022-12-17T21:52:43.294Z,168.20
2022-12-17T21:55:12.136Z,184.53
2022-12-17T21:57:42.703Z,190.47
2022-12-17T22:00:12.888Z,201.40
2022-12-17T22:02:42.031Z,207.43
2022-12-17T22:05:16.239Z,215.13
2022-12-17T22:07:48.260Z,231.40
2022-12-17T22:10:38.450Z,223.83
2022-12-17T22:13:27.668Z,219.00
2022-12-17T22:15:57.297Z,225.27
2022-12-17T22:18:27.762Z,235.37
2022-12-17T22:21:00.469Z,226.70
2022-12-17T22:23:29.994Z,227.90
2022-12-17T22:26:19.604Z,219.70
2022-12-17T22:28:50.372Z,226.20
2022-12-17T22:31:38.459Z,222.93
2022-12-17T22:34:55.185Z,253.33
2022-12-17T22:38:40.294Z,239.90
2022-12-17T22:44:31.021Z,214.67
2022-12-17T22:44:41.941Z,210.60
2022-12-17T22:45:44.685Z,212.27
2022-12-17T22:48:15.133Z,139.83
2022-12-17T22:50:54.779Z,137.00
2022-12-17T22:53:53.115Z,126.60
2022-12-17T22:56:36.372Z,113.07
2022-12-17T22:59:17.261Z,68.87
2022-12-17T23:01:48.027Z,66.37
2022-12-17T23:04:17.987Z,64.93
2022-12-17T23:06:47.672Z,53.30
2022-12-17T23:09:19.435Z,55.70
2022-12-17T23:11:49.607Z,55.53
2022-12-17T23:14:19.242Z,48.13
2022-12-17T23:16:49.741Z,47.47
2022-12-17T23:19:18.635Z,36.80
2022-12-17T23:21:47.568Z,32.57
2022-12-17T23:24:16.461Z,32.27
2022-12-17T23:26:45.359Z,32.10
2022-12-17T23:29:19.415Z,46.37
2022-12-17T23:31:50.345Z,66.60
2022-12-17T23:34:19.170Z,69.47
2022-12-17T23:36:48.185Z,78.33
2022-12-17T23:39:17.191Z,62.20
2022-12-17T23:41:46.228Z,46.80
2022-12-17T23:44:15.052Z,43.87
2022-12-17T23:46:44.085Z,34.47
2022-12-17T23:49:14.512Z,28.87
2022-12-17T23:51:43.529Z,31.53
2022-12-17T23:54:12.528Z,27.80
2022-12-17T23:56:41.614Z,24.40
2022-12-17T23:59:11.831Z,24.37
